Time;durP1;ratioP1;P1;durP2;ratioP2;P2;SDS_P1;SDS_P2;PMS_P1;PMS_P2;Temp;Humidity;BMP_temperature;BMP_pressure;BME280_temperature;BME280_humidity;BME280_pressure;Samples;Min_cycle;Max_cycle;Signal;HPM_P1;HPM_P2
2021/09/22 00:01:32;;;;;;;25.43;13.87;;;9.70;99.90;;;;;;5070962;28;20388;-56
2021/09/22 00:03:57;;;;;;;25.85;13.82;;;9.70;99.90;;;;;;5070337;28;20502;-55
2021/09/22 00:06:23;;;;;;;21.83;13.20;;;9.70;99.90;;;;;;5070965;28;20460;-56
2021/09/22 00:08:49;;;;;;;23.27;13.52;;;9.70;99.90;;;;;;5070328;28;20483;-56
2021/09/22 00:11:14;;;;;;;21.47;13.23;;;9.70;99.90;;;;;;5070884;28;20384;-56
2021/09/22 00:13:40;;;;;;;23.13;13.30;;;9.70;99.90;;;;;;5070009;28;20379;-56
2021/09/22 00:16:06;;;;;;;22.60;12.80;;;9.60;99.90;;;;;;5071150;28;20384;-55
2021/09/22 00:18:32;;;;;;;25.13;13.85;;;9.60;99.90;;;;;;5070785;28;20838;-56
2021/09/22 00:20:58;;;;;;;22.52;12.85;;;9.70;99.90;;;;;;5069817;28;20412;-56
2021/09/22 00:23:24;;;;;;;22.80;13.17;;;9.80;99.90;;;;;;5070954;28;20812;-56
2021/09/22 00:25:49;;;;;;;22.50;12.63;;;9.50;99.90;;;;;;5070324;28;20388;-55
2021/09/22 00:28:15;;;;;;;22.93;13.07;;;9.50;99.90;;;;;;5070540;28;20392;-55
2021/09/22 00:30:41;;;;;;;24.90;13.40;;;9.50;99.90;;;;;;5069804;28;20418;-55
2021/09/22 00:33:07;;;;;;;24.90;13.50;;;9.50;99.90;;;;;;5070561;28;20387;-56
2021/09/22 00:35:34;;;;;;;24.48;13.50;;;9.50;99.90;;;;;;5070168;28;20380;-56
2021/09/22 00:38:00;;;;;;;23.50;13.20;;;9.40;99.90;;;;;;5069773;28;20883;-55
2021/09/22 00:40:26;;;;;;;21.50;13.37;;;9.30;99.90;;;;;;5070268;28;20416;-55
2021/09/22 00:42:51;;;;;;;22.25;12.90;;;9.20;99.90;;;;;;5069648;28;20380;-56
2021/09/22 00:45:17;;;;;;;22.27;13.00;;;9.30;99.90;;;;;;5070063;28;20372;-55
2021/09/22 00:47:44;;;;;;;26.77;13.75;;;9.20;99.90;;;;;;5069466;28;20383;-55
2021/09/22 00:50:10;;;;;;;21.95;12.65;;;9.30;99.90;;;;;;5069881;28;20383;-56
2021/09/22 00:52:38;;;;;;;23.70;12.40;;;9.20;99.90;;;;;;5069924;28;20467;-56
2021/09/22 00:55:05;;;;;;;26.25;13.52;;;9.30;99.90;;;;;;5069672;28;20426;-55
2021/09/22 00:57:30;;;;;;;22.35;13.05;;;9.30;99.90;;;;;;5069966;28;20494;-56
2021/09/22 00:59:56;;;;;;;22.77;12.60;;;9.40;99.90;;;;;;5068698;28;20522;-55
2021/09/22 01:02:22;;;;;;;24.23;13.02;;;8.10;99.90;;;;;;5070037;28;20394;-56
2021/09/22 01:04:47;;;;;;;21.57;13.23;;;9.40;99.90;;;;;;5068770;28;20860;-56
2021/09/22 01:07:15;;;;;;;22.20;12.25;;;9.50;99.90;;;;;;5069690;28;20372;-56
2021/09/22 01:09:41;;;;;;;25.13;13.75;;;9.40;99.90;;;;;;5069173;28;20462;-56
2021/09/22 01:12:08;;;;;;;24.13;13.75;;;9.40;99.90;;;;;;5063885;28;20890;-56
2021/09/22 01:14:34;;;;;;;22.90;12.88;;;9.50;99.90;;;;;;5056816;28;20751;-55
2021/09/22 01:17:00;;;;;;;22.50;12.60;;;9.40;99.90;;;;;;5062474;28;20433;-56
2021/09/22 01:19:27;;;;;;;23.23;12.70;;;9.40;99.90;;;;;;5049514;28;20413;-55
2021/09/22 01:21:54;;;;;;;22.15;12.43;;;9.30;99.90;;;;;;5048919;28;20381;-56
2021/09/22 01:24:20;;;;;;;22.05;12.45;;;9.20;99.90;;;;;;5048199;28;20877;-55
2021/09/22 01:26:47;;;;;;;22.38;12.93;;;9.20;99.90;;;;;;5048630;28;20389;-55
2021/09/22 01:29:14;;;;;;;22.08;12.50;;;9.30;99.90;;;;;;5049610;28;20382;-55
2021/09/22 01:31:42;;;;;;;21.50;12.65;;;9.30;99.90;;;;;;5048990;28;20488;-55
2021/09/22 01:34:10;;;;;;;22.27;13.30;;;9.10;99.90;;;;;;5049546;28;20460;-56
2021/09/22 01:36:35;;;;;;;20.10;12.00;;;9.10;99.90;;;;;;5049435;28;20377;-56
2021/09/22 01:39:02;;;;;;;21.75;12.20;;;9.20;99.90;;;;;;5048438;28;20442;-55
2021/09/22 01:41:27;;;;;;;24.52;13.02;;;9.10;99.90;;;;;;5049172;28;20920;-56
2021/09/22 01:43:54;;;;;;;22.90;12.80;;;9.00;99.90;;;;;;5048701;28;20381;-56
2021/09/22 01:46:19;;;;;;;22.10;12.25;;;9.10;99.90;;;;;;5049352;28;20469;-55
2021/09/22 01:48:45;;;;;;;20.20;12.60;;;9.10;99.90;;;;;;5048383;28;20457;-55
2021/09/22 01:51:12;;;;;;;23.23;12.55;;;9.00;99.90;;;;;;5049150;28;20435;-58
2021/09/22 01:53:38;;;;;;;21.00;12.30;;;8.90;99.90;;;;;;5048933;28;20839;-56
2021/09/22 01:56:06;;;;;;;21.80;12.65;;;8.90;99.90;;;;;;5048761;28;20443;-56
2021/09/22 01:58:32;;;;;;;22.73;13.30;;;8.90;99.90;;;;;;5049326;28;20389;-55
2021/09/22 02:01:12;;;;;;;22.87;12.70;;;8.90;99.90;;;;;;5048395;28;20401;-56
2021/09/22 02:03:38;;;;;;;25.00;13.05;;;8.90;99.90;;;;;;5049131;28;20386;-55
2021/09/22 02:06:03;;;;;;;22.92;12.80;;;8.80;99.90;;;;;;5048517;28;20375;-55
2021/09/22 02:08:30;;;;;;;22.05;12.50;;;8.80;99.90;;;;;;5048894;28;20834;-56
2021/09/22 02:10:55;;;;;;;21.75;12.07;;;8.80;99.90;;;;;;5048458;28;20870;-56
2021/09/22 02:13:21;;;;;;;22.70;12.30;;;8.90;99.90;;;;;;5053121;28;20378;-55
2021/09/22 02:15:47;;;;;;;23.45;12.98;;;8.80;99.90;;;;;;5052506;28;20960;-56
2021/09/22 02:18:12;;;;;;;23.43;12.53;;;8.80;99.90;;;;;;5052557;28;20439;-55
2021/09/22 02:20:38;;;;;;;21.90;12.57;;;8.90;99.90;;;;;;5052230;28;20870;-55
2021/09/22 02:23:04;;;;;;;21.73;11.57;;;8.80;99.90;;;;;;5050903;28;20401;-55
2021/09/22 02:25:30;;;;;;;25.25;12.70;;;8.80;99.90;;;;;;5052628;28;20397;-55
2021/09/22 02:27:56;;;;;;;21.65;13.40;;;8.80;99.90;;;;;;5052096;28;20442;-55
2021/09/22 02:30:23;;;;;;;22.67;11.70;;;8.90;99.90;;;;;;5052754;28;20385;-55
2021/09/22 02:32:50;;;;;;;20.90;12.90;;;8.70;99.90;;;;;;5052073;28;20409;-55
2021/09/22 02:35:16;;;;;;;22.00;12.02;;;8.80;99.90;;;;;;5052649;28;20378;-55
2021/09/22 02:37:42;;;;;;;20.95;11.82;;;8.70;99.90;;;;;;5051980;28;20435;-55
2021/09/22 02:40:13;;;;;;;23.23;12.23;;;8.70;99.90;;;;;;5052872;28;20421;-55
2021/09/22 02:42:40;;;;;;;20.83;11.20;;;8.80;99.90;;;;;;5052439;28;20396;-55
2021/09/22 02:45:06;;;;;;;23.90;12.70;;;8.80;99.90;;;;;;5052088;28;20427;-55
2021/09/22 02:47:32;;;;;;;24.00;12.50;;;8.70;99.90;;;;;;5052528;28;20381;-55
2021/09/22 02:49:58;;;;;;;20.40;11.90;;;8.60;99.90;;;;;;5051334;28;20435;-55
2021/09/22 02:52:25;;;;;;;23.48;11.73;;;8.50;99.90;;;;;;5052577;28;20476;-55
2021/09/22 02:54:50;;;;;;;23.02;12.70;;;8.60;99.90;;;;;;5051558;28;20405;-55
2021/09/22 02:57:16;;;;;;;21.77;12.60;;;8.70;99.90;;;;;;5052367;28;20397;-55
2021/09/22 02:59:42;;;;;;;20.83;11.38;;;8.70;99.90;;;;;;5050607;28;20516;-55
2021/09/22 03:02:07;;;;;;;26.13;12.53;;;8.70;99.90;;;;;;5052018;28;20863;-55
2021/09/22 03:04:33;;;;;;;21.03;12.13;;;8.60;99.90;;;;;;5051956;28;20381;-55
2021/09/22 03:06:59;;;;;;;21.65;12.52;;;8.50;99.90;;;;;;5051588;28;20373;-55
2021/09/22 03:09:24;;;;;;;20.93;11.40;;;8.50;99.90;;;;;;5051873;28;20830;-55
2021/09/22 03:11:51;;;;;;;25.92;12.88;;;8.40;99.90;;;;;;5049951;28;20397;-55
2021/09/22 03:14:18;;;;;;;23.33;13.00;;;8.30;99.90;;;;;;5052133;28;20384;-55
2021/09/22 03:16:45;;;;;;;21.85;12.10;;;8.20;99.90;;;;;;5051222;28;20413;-55
2021/09/22 03:19:11;;;;;;;23.42;12.80;;;8.30;99.90;;;;;;5051656;28;20392;-55
2021/09/22 03:21:36;;;;;;;21.45;12.20;;;8.30;99.90;;;;;;5052128;28;20774;-55
2021/09/22 03:24:02;;;;;;;21.03;11.93;;;8.40;99.90;;;;;;5050573;28;20378;-55
2021/09/22 03:26:28;;;;;;;20.40;11.18;;;8.40;99.90;;;;;;5050600;28;20389;-55
2021/09/22 03:28:54;;;;;;;20.20;11.18;;;8.50;99.90;;;;;;5050896;28;20847;-55
2021/09/22 03:31:19;;;;;;;20.43;11.40;;;8.50;99.90;;;;;;5069989;28;20383;-55
2021/09/22 03:33:45;;;;;;;19.25;11.35;;;8.50;99.90;;;;;;5070825;28;20779;-55
2021/09/22 03:36:11;;;;;;;20.27;11.30;;;8.60;99.90;;;;;;5071429;28;20845;-55
2021/09/22 03:38:37;;;;;;;19.45;11.27;;;8.50;99.90;;;;;;5071560;28;20429;-55
2021/09/22 03:41:03;;;;;;;21.17;11.07;;;9.30;99.90;;;;;;5070722;28;20404;-55
2021/09/22 03:43:29;;;;;;;23.08;12.85;;;8.60;99.90;;;;;;5071521;28;20437;-55
2021/09/22 03:45:55;;;;;;;20.70;11.60;;;8.70;99.90;;;;;;5070652;28;20388;-55
2021/09/22 03:48:21;;;;;;;23.90;12.63;;;8.70;99.90;;;;;;5071133;28;20380;-55
2021/09/22 03:50:49;;;;;;;21.15;12.07;;;8.70;99.90;;;;;;5070329;28;20392;-55
2021/09/22 03:53:16;;;;;;;21.20;11.45;;;8.50;99.90;;;;;;5071394;28;20376;-55
2021/09/22 03:55:43;;;;;;;24.05;13.70;;;8.50;99.90;;;;;;5070392;28;20453;-55
2021/09/22 03:58:10;;;;;;;24.75;14.45;;;8.60;99.90;;;;;;5070242;28;20372;-55
2021/09/22 04:00:36;;;;;;;25.33;13.90;;;8.60;99.90;;;;;;5070958;28;20411;-55
2021/09/22 04:03:02;;;;;;;26.10;14.37;;;8.60;99.90;;;;;;5069505;28;20414;-55
2021/09/22 04:05:27;;;;;;;23.42;13.45;;;8.70;99.90;;;;;;5070230;28;20388;-55
2021/09/22 04:07:53;;;;;;;25.93;14.53;;;8.70;99.90;;;;;;5063381;28;20496;-55
2021/09/22 04:10:19;;;;;;;25.10;15.20;;;8.70;99.90;;;;;;5069551;28;20435;-55
2021/09/22 04:12:44;;;;;;;25.10;14.00;;;8.60;99.90;;;;;;5069892;28;20384;-56
2021/09/22 04:15:10;;;;;;;26.10;13.73;;;8.50;99.90;;;;;;5068802;28;20388;-55
2021/09/22 04:17:36;;;;;;;22.27;12.43;;;8.50;99.90;;;;;;5062855;28;20387;-57
2021/09/22 04:20:04;;;;;;;28.13;14.10;;;8.70;99.90;;;;;;5054246;28;21013;-55
2021/09/22 04:22:30;;;;;;;22.77;13.40;;;8.50;99.90;;;;;;5059871;28;20393;-55
2021/09/22 04:24:55;;;;;;;25.13;14.20;;;8.50;99.90;;;;;;5050748;28;20411;-55
2021/09/22 04:27:21;;;;;;;26.27;13.70;;;8.50;99.90;;;;;;5051776;28;20875;-55
2021/09/22 04:29:47;;;;;;;24.17;13.38;;;8.50;99.90;;;;;;5052856;28;20385;-55
2021/09/22 04:32:12;;;;;;;22.93;13.13;;;8.50;99.90;;;;;;5058619;28;20378;-55
2021/09/22 04:34:38;;;;;;;23.10;13.40;;;8.30;99.90;;;;;;5049147;28;20447;-55
2021/09/22 04:37:04;;;;;;;21.77;12.27;;;8.40;99.90;;;;;;5049522;28;20992;-55
2021/09/22 04:39:29;;;;;;;22.20;13.35;;;8.50;99.90;;;;;;5049736;28;20488;-55
2021/09/22 04:41:55;;;;;;;24.80;13.60;;;8.50;99.90;;;;;;5048739;28;20433;-55
2021/09/22 04:44:21;;;;;;;24.13;12.35;;;7.60;99.90;;;;;;5049699;28;20382;-55
2021/09/22 04:46:46;;;;;;;25.23;13.77;;;8.50;99.90;;;;;;5050932;28;20386;-55
2021/09/22 04:49:12;;;;;;;21.35;12.50;;;8.70;99.90;;;;;;5054887;28;20379;-55
2021/09/22 04:51:38;;;;;;;28.27;13.77;;;10.20;99.90;;;;;;5054180;28;20401;-56
2021/09/22 04:54:03;;;;;;;28.80;13.82;;;8.50;99.90;;;;;;5048182;28;21038;-55
2021/09/22 04:56:29;;;;;;;22.33;13.07;;;8.50;99.90;;;;;;5051285;28;20735;-54
2021/09/22 04:58:55;;;;;;;23.92;13.60;;;8.50;99.90;;;;;;5063234;28;20474;-55
2021/09/22 05:01:20;;;;;;;23.53;12.83;;;8.50;99.90;;;;;;5073136;28;20469;-55
2021/09/22 05:03:46;;;;;;;22.08;12.68;;;8.40;99.90;;;;;;5063842;28;20954;-55
2021/09/22 05:06:12;;;;;;;23.77;12.80;;;8.50;99.90;;;;;;5063664;28;20405;-55
2021/09/22 05:08:37;;;;;;;23.88;13.02;;;8.20;99.90;;;;;;5080012;28;20747;-55
2021/09/22 05:11:03;;;;;;;25.47;13.57;;;8.10;99.90;;;;;;5079256;28;20418;-55
2021/09/22 05:13:29;;;;;;;23.70;13.60;;;8.20;99.90;;;;;;5065877;28;20942;-55
2021/09/22 05:15:54;;;;;;;22.20;13.50;;;8.20;99.90;;;;;;5066146;28;20485;-55
2021/09/22 05:18:20;;;;;;;24.98;13.50;;;8.20;99.90;;;;;;5063393;28;20389;-55
2021/09/22 05:20:46;;;;;;;23.70;12.83;;;8.20;99.90;;;;;;5070960;28;20404;-55
2021/09/22 05:23:11;;;;;;;23.17;13.00;;;8.30;99.90;;;;;;5085507;28;20549;-55
2021/09/22 05:25:37;;;;;;;24.83;13.70;;;8.30;99.90;;;;;;5075101;28;20744;-55
2021/09/22 05:28:03;;;;;;;23.17;13.45;;;8.30;99.90;;;;;;5088288;28;20469;-55
2021/09/22 05:30:29;;;;;;;24.90;14.60;;;8.30;99.90;;;;;;5089062;28;20393;-55
2021/09/22 05:32:55;;;;;;;25.58;13.10;;;8.30;99.90;;;;;;5088944;28;20370;-55
2021/09/22 05:35:20;;;;;;;26.90;15.23;;;8.40;99.90;;;;;;5089304;28;20867;-55
2021/09/22 05:37:46;;;;;;;24.45;13.95;;;8.50;99.90;;;;;;5088793;28;20378;-55
2021/09/22 05:40:12;;;;;;;25.07;14.33;;;8.60;99.90;;;;;;5089461;28;20401;-55
2021/09/22 05:42:38;;;;;;;25.05;13.60;;;8.70;99.90;;;;;;5088922;28;20370;-59
2021/09/22 05:45:05;;;;;;;26.23;14.60;;;8.90;99.90;;;;;;5088861;28;20366;-55
2021/09/22 05:47:31;;;;;;;23.13;13.57;;;8.90;99.90;;;;;;5086675;28;20396;-55
2021/09/22 05:49:56;;;;;;;22.90;12.40;;;9.00;99.90;;;;;;5060805;28;20408;-55
2021/09/22 05:52:22;;;;;;;22.85;12.73;;;9.30;99.90;;;;;;5069201;28;20778;-55
2021/09/22 05:54:49;;;;;;;29.73;13.73;;;9.40;99.90;;;;;;5067255;28;20407;-55
2021/09/22 05:57:14;;;;;;;26.07;13.50;;;9.60;99.90;;;;;;5068755;28;20379;-55
2021/09/22 05:59:40;;;;;;;23.55;13.98;;;9.70;99.90;;;;;;5068730;28;20818;-55
2021/09/22 06:02:07;;;;;;;23.77;13.37;;;9.80;99.90;;;;;;5068377;28;20385;-55
2021/09/22 06:04:33;;;;;;;51.53;18.17;;;9.90;99.90;;;;;;5068826;28;20384;-54
2021/09/22 06:06:58;;;;;;;24.80;13.00;;;10.10;99.90;;;;;;5068028;28;20470;-55
2021/09/22 06:09:24;;;;;;;22.83;11.83;;;10.60;99.90;;;;;;5067007;28;20455;-52
2021/09/22 06:11:50;;;;;;;22.38;12.20;;;11.10;99.90;;;;;;5066672;28;20372;-53
2021/09/22 06:14:15;;;;;;;20.35;11.85;;;11.70;99.90;;;;;;5068701;28;20444;-52
2021/09/22 06:16:41;;;;;;;21.43;11.80;;;12.30;99.90;;;;;;5068369;28;20466;-55
2021/09/22 06:19:09;;;;;;;18.70;11.38;;;13.00;99.90;;;;;;5067369;28;20402;-55
2021/09/22 06:21:35;;;;;;;17.33;10.63;;;13.90;99.90;;;;;;5068256;28;20482;-55
2021/09/22 06:24:01;;;;;;;20.08;12.10;;;14.50;99.90;;;;;;5068162;28;20387;-55
2021/09/22 06:26:27;;;;;;;18.02;11.38;;;15.00;99.90;;;;;;5069029;28;20380;-56
2021/09/22 06:28:53;;;;;;;19.73;12.20;;;15.60;99.90;;;;;;5068175;28;20391;-56
2021/09/22 06:31:19;;;;;;;21.57;12.43;;;16.20;99.90;;;;;;5068644;28;20387;-55
2021/09/22 06:33:45;;;;;;;22.33;11.83;;;16.20;99.90;;;;;;5068255;28;20379;-55
2021/09/22 06:36:10;;;;;;;19.40;12.32;;;16.30;99.90;;;;;;5068240;28;20449;-56
2021/09/22 06:38:36;;;;;;;18.40;11.77;;;16.60;99.90;;;;;;5067697;28;20471;-56
2021/09/22 06:41:02;;;;;;;18.37;11.90;;;16.90;99.90;;;;;;5066605;28;20403;-53
2021/09/22 06:43:28;;;;;;;19.27;12.70;;;16.90;99.90;;;;;;5068341;28;20517;-56
2021/09/22 06:45:54;;;;;;;19.00;12.90;;;16.80;99.90;;;;;;5067863;28;20880;-53
2021/09/22 06:48:19;;;;;;;22.90;12.57;;;17.30;99.90;;;;;;5068968;28;20378;-53
2021/09/22 06:50:46;;;;;;;22.50;13.70;;;17.50;99.90;;;;;;5067564;28;20384;-53
2021/09/22 06:53:12;;;;;;;22.10;13.40;;;17.40;99.90;;;;;;5068393;28;20849;-53
2021/09/22 06:55:38;;;;;;;25.10;13.20;;;17.80;99.90;;;;;;5067913;28;20400;-53
2021/09/22 06:58:05;;;;;;;22.30;13.70;;;17.90;99.90;;;;;;5069225;28;20395;-53
2021/09/22 07:00:31;;;;;;;22.65;14.45;;;18.20;99.90;;;;;;5072169;28;20439;-53
2021/09/22 07:02:57;;;;;;;21.43;13.57;;;17.90;99.90;;;;;;5069910;28;20395;-53
2021/09/22 07:05:22;;;;;;;23.92;13.98;;;18.00;99.90;;;;;;5071293;28;20884;-53
2021/09/22 07:07:48;;;;;;;23.35;13.80;;;18.40;99.90;;;;;;5070960;28;20857;-54
2021/09/22 07:10:15;;;;;;;24.65;14.20;;;18.70;99.90;;;;;;5071848;28;20441;-54
2021/09/22 07:12:42;;;;;;;29.15;14.20;;;19.10;99.90;;;;;;5071799;28;20376;-54
2021/09/22 07:15:08;;;;;;;20.13;13.40;;;19.60;99.90;;;;;;5070822;28;20465;-56
2021/09/22 07:17:34;;;;;;;21.73;14.63;;;19.90;99.90;;;;;;5071956;28;20380;-56
2021/09/22 07:19:59;;;;;;;22.58;14.00;;;20.20;99.90;;;;;;5069546;28;20415;-56
2021/09/22 07:22:26;;;;;;;22.13;15.27;;;19.90;99.90;;;;;;5071300;28;20461;-56
2021/09/22 07:24:51;;;;;;;24.47;14.50;;;19.70;99.90;;;;;;5071080;28;20387;-54
2021/09/22 07:27:17;;;;;;;21.10;14.63;;;19.60;99.90;;;;;;5071428;28;20711;-54
2021/09/22 07:29:43;;;;;;;22.33;14.80;;;19.70;99.90;;;;;;5071506;28;20383;-54
2021/09/22 07:32:09;;;;;;;21.93;15.30;;;19.80;99.90;;;;;;5070446;28;20372;-56
2021/09/22 07:34:36;;;;;;;22.67;15.13;;;20.40;99.90;;;;;;5071415;28;20379;-57
2021/09/22 07:37:07;;;;;;;22.13;15.10;;;20.50;99.90;;;;;;5070394;28;20845;-56
2021/09/22 07:39:34;;;;;;;21.67;14.60;;;20.60;99.90;;;;;;5070212;28;20800;-56
2021/09/22 07:41:59;;;;;;;23.98;14.73;;;20.60;99.90;;;;;;5070339;28;20395;-56
2021/09/22 07:44:25;;;;;;;25.70;14.83;;;20.40;99.90;;;;;;5071013;28;20388;-57
2021/09/22 07:46:51;;;;;;;22.00;15.30;;;20.10;99.90;;;;;;5070771;28;20752;-57
2021/09/22 07:49:16;;;;;;;24.87;15.37;;;19.80;99.90;;;;;;5070981;28;20387;-55
2021/09/22 07:51:42;;;;;;;23.65;15.60;;;20.10;99.90;;;;;;5071065;28;20421;-56
2021/09/22 07:54:08;;;;;;;21.42;14.95;;;20.70;99.90;;;;;;5068860;28;20384;-57
2021/09/22 07:56:33;;;;;;;24.77;16.17;;;21.50;98.50;;;;;;5071259;28;20399;-56
2021/09/22 07:58:59;;;;;;;24.98;16.90;;;22.10;96.70;;;;;;5069727;28;20380;-57
2021/09/22 08:01:25;;;;;;;23.00;16.53;;;22.60;94.90;;;;;;5070954;28;20399;-57
2021/09/22 08:03:50;;;;;;;30.00;17.07;;;22.10;95.80;;;;;;5070148;28;20880;-57
2021/09/22 08:06:16;;;;;;;21.63;16.43;;;22.40;95.50;;;;;;5070272;28;20390;-55
2021/09/22 08:08:42;;;;;;;23.37;17.73;;;23.30;92.70;;;;;;5070034;28;20458;-55
2021/09/22 08:11:08;;;;;;;22.40;17.80;;;23.40;91.80;;;;;;5069489;28;20379;-55
2021/09/22 08:13:33;;;;;;;24.77;16.77;;;23.20;91.60;;;;;;5070628;28;20390;-55
2021/09/22 08:15:59;;;;;;;21.80;17.70;;;23.20;90.50;;;;;;5069768;28;20376;-55
2021/09/22 08:18:25;;;;;;;28.45;18.35;;;23.00;90.30;;;;;;5070721;28;20390;-56
2021/09/22 08:20:50;;;;;;;23.50;18.20;;;22.90;90.00;;;;;;5069490;28;20503;-57
2021/09/22 08:23:16;;;;;;;21.00;17.00;;;22.70;90.00;;;;;;5070699;28;20487;-57
2021/09/22 08:25:42;;;;;;;21.50;17.17;;;22.70;89.80;;;;;;5069986;28;20484;-57
2021/09/22 08:28:08;;;;;;;24.85;17.77;;;22.50;89.10;;;;;;5069830;28;20482;-57
2021/09/22 08:30:33;;;;;;;21.00;16.13;;;21.70;90.50;;;;;;5070355;28;20384;-57
2021/09/22 08:32:59;;;;;;;22.15;15.95;;;21.70;90.70;;;;;;5069626;28;20857;-57
2021/09/22 08:35:25;;;;;;;22.90;16.87;;;22.30;90.50;;;;;;5069843;28;20375;-55
2021/09/22 08:37:50;;;;;;;21.80;17.37;;;23.20;87.00;;;;;;5069049;28;20476;-55
2021/09/22 08:40:17;;;;;;;23.67;17.07;;;23.20;84.30;;;;;;5070349;28;20477;-55
2021/09/22 08:42:43;;;;;;;20.60;18.13;;;22.90;86.10;;;;;;5068911;28;20395;-55
2021/09/22 08:45:13;;;;;;;22.00;19.53;;;23.40;86.50;;;;;;5069210;28;20383;-55
2021/09/22 08:47:43;;;;;;;24.83;20.35;;;24.50;82.50;;;;;;5069749;28;20466;-55
2021/09/22 08:50:10;;;;;;;23.90;18.60;;;23.80;81.40;;;;;;5069331;28;20434;-55
2021/09/22 08:52:36;;;;;;;23.50;18.05;;;23.10;84.20;;;;;;5069542;28;20428;-55
2021/09/22 08:55:02;;;;;;;21.37;17.77;;;23.80;81.10;;;;;;5068623;28;20431;-55
2021/09/22 08:57:28;;;;;;;21.10;18.90;;;24.70;79.50;;;;;;5069918;28;20478;-56
2021/09/22 08:59:53;;;;;;;25.53;19.10;;;26.10;72.50;;;;;;5068516;28;20872;-57
2021/09/22 09:02:22;;;;;;;21.70;19.38;;;25.00;71.00;;;;;;5069380;28;20380;-55
2021/09/22 09:05:03;;;;;;;21.60;17.70;;;25.60;70.70;;;;;;5068990;28;20379;-55
2021/09/22 09:07:31;;;;;;;27.40;19.40;;;26.00;70.90;;;;;;5069203;28;20508;-55
2021/09/22 09:10:08;;;;;;;21.03;18.37;;;25.90;68.10;;;;;;5067502;28;20391;-56
2021/09/22 09:12:34;;;;;;;23.67;18.08;;;26.70;66.00;;;;;;5069352;28;20884;-57
2021/09/22 09:15:06;;;;;;;20.33;18.20;;;27.30;62.50;;;;;;5069160;28;20394;-58
2021/09/22 09:17:58;;;;;;;18.77;16.77;;;27.20;60.30;;;;;;5069174;28;20469;-58
2021/09/22 09:20:26;;;;;;;18.13;15.87;;;26.50;58.10;;;;;;5067806;28;20403;-55
2021/09/22 09:23:14;;;;;;;20.60;18.40;;;26.00;58.90;;;;;;5068968;28;20396;-56
2021/09/22 09:25:44;;;;;;;19.58;17.23;;;26.50;58.60;;;;;;5069187;28;20445;-56
2021/09/22 09:28:19;;;;;;;19.45;17.35;;;26.00;59.80;;;;;;5068825;28;20392;-56
2021/09/22 09:30:47;;;;;;;17.80;16.00;;;26.10;58.60;;;;;;5069067;28;20396;-56
2021/09/22 09:33:39;;;;;;;17.00;15.30;;;25.50;58.70;;;;;;5068707;28;20380;-56
2021/09/22 09:36:26;;;;;;;15.55;13.57;;;26.20;57.80;;;;;;5067517;28;20769;-56
2021/09/22 09:39:15;;;;;;;17.55;15.75;;;27.30;56.50;;;;;;5068247;28;20499;-56
2021/09/22 09:41:51;;;;;;;16.30;14.60;;;27.70;53.70;;;;;;5069202;28;20403;-56
2021/09/22 09:44:26;;;;;;;14.63;12.77;;;27.10;53.90;;;;;;5068669;28;20726;-56
2021/09/22 09:46:53;;;;;;;13.07;11.60;;;27.00;53.70;;;;;;5068376;28;20459;-56
2021/09/22 09:49:22;;;;;;;13.40;11.85;;;27.20;52.80;;;;;;5069408;28;20478;-56
2021/09/22 09:51:50;;;;;;;13.18;11.77;;;27.50;51.60;;;;;;5068585;28;20437;-56
2021/09/22 09:54:27;;;;;;;12.20;10.90;;;27.40;51.80;;;;;;5068994;28;20399;-56
2021/09/22 09:56:56;;;;;;;10.00;9.00;;;27.60;50.10;;;;;;5068315;28;20490;-56
2021/09/22 09:59:24;;;;;;;11.73;10.52;;;27.70;48.40;;;;;;5069151;28;20380;-56
2021/09/22 10:01:52;;;;;;;11.90;10.80;;;27.90;48.90;;;;;;5067498;28;20387;-56
2021/09/22 10:04:21;;;;;;;15.85;11.30;;;27.90;50.00;;;;;;5068727;28;20718;-56
2021/09/22 10:06:47;;;;;;;13.27;11.88;;;27.50;50.90;;;;;;5069072;28;20473;-56
2021/09/22 10:09:13;;;;;;;17.33;12.00;;;27.70;50.30;;;;;;5068290;28;20383;-55
2021/09/22 10:11:41;;;;;;;12.55;10.45;;;27.40;50.60;;;;;;5069241;28;21215;-56
2021/09/22 10:14:08;;;;;;;12.17;10.53;;;27.10;51.00;;;;;;5067911;28;20383;-55
2021/09/22 10:16:36;;;;;;;13.23;11.98;;;27.50;51.50;;;;;;5068914;28;20408;-56
2021/09/22 10:19:04;;;;;;;12.35;10.85;;;27.90;50.60;;;;;;5067564;28;20806;-56
2021/09/22 10:21:33;;;;;;;12.30;11.00;;;27.50;50.60;;;;;;5068892;28;20431;-55
2021/09/22 10:24:00;;;;;;;11.45;10.25;;;27.50;51.20;;;;;;5067886;28;20458;-56
2021/09/22 10:26:28;;;;;;;10.90;9.80;;;27.90;50.30;;;;;;5068405;28;20396;-56
2021/09/22 10:28:58;;;;;;;11.13;8.80;;;28.20;48.80;;;;;;5067873;28;20872;-57
2021/09/22 10:31:29;;;;;;;11.77;10.57;;;28.10;49.40;;;;;;5069118;28;20392;-58
2021/09/22 10:33:57;;;;;;;10.93;9.57;;;28.10;49.20;;;;;;5071119;28;20380;-58
2021/09/22 10:36:42;;;;;;;10.60;9.10;;;27.90;48.90;;;;;;5072352;28;20380;-58
2021/09/22 10:39:11;;;;;;;10.35;9.25;;;27.80;49.70;;;;;;5071801;28;20390;-56
2021/09/22 10:41:42;;;;;;;9.70;8.48;;;28.20;48.40;;;;;;5072197;28;20411;-56
2021/09/22 10:44:30;;;;;;;10.90;9.70;;;28.30;49.10;;;;;;5071812;28;20387;-56
2021/09/22 10:47:25;;;;;;;10.80;8.80;;;28.60;48.40;;;;;;5070378;28;20725;-56
2021/09/22 10:49:51;;;;;;;11.57;10.40;;;28.60;47.50;;;;;;5071389;28;20745;-57
2021/09/22 10:52:38;;;;;;;10.20;8.88;;;27.90;48.60;;;;;;5072031;28;20398;-57
2021/09/22 10:55:13;;;;;;;9.88;8.88;;;28.00;48.20;;;;;;5071056;28;20445;-57
2021/09/22 10:57:41;;;;;;;10.00;8.60;;;28.30;47.80;;;;;;5071453;28;20388;-57
2021/09/22 11:00:17;;;;;;;9.30;7.90;;;28.40;47.60;;;;;;5071208;28;20530;-56
2021/09/22 11:02:54;;;;;;;9.38;8.45;;;27.70;49.40;;;;;;5072062;28;20426;-56
2021/09/22 11:05:25;;;;;;;14.57;7.90;;;27.20;49.30;;;;;;5072002;28;20391;-57
2021/09/22 11:08:08;;;;;;;9.90;7.90;;;26.80;50.90;;;;;;5071258;28;20375;-56
2021/09/22 11:10:46;;;;;;;9.15;7.47;;;27.00;51.00;;;;;;5070411;28;20757;-56
2021/09/22 11:13:23;;;;;;;8.57;7.00;;;26.90;49.40;;;;;;5070884;28;20383;-57
2021/09/22 11:15:50;;;;;;;7.93;6.43;;;26.60;49.90;;;;;;5071307;28;20392;-56
2021/09/22 11:18:17;;;;;;;11.35;8.07;;;26.70;50.40;;;;;;5069969;28;20399;-56
2021/09/22 11:21:00;;;;;;;9.68;8.48;;;26.30;51.60;;;;;;5071536;28;20748;-56
2021/09/22 11:23:28;;;;;;;11.15;9.20;;;25.90;51.90;;;;;;5071117;28;20384;-56
2021/09/22 11:26:02;;;;;;;12.70;9.10;;;25.20;53.40;;;;;;5070778;28;20384;-56
2021/09/22 11:28:28;;;;;;;29.45;9.20;;;24.90;54.10;;;;;;5071640;28;20478;-56
2021/09/22 11:30:54;;;;;;;12.40;8.70;;;24.60;54.60;;;;;;5069734;28;20403;-55
2021/09/22 11:33:25;;;;;;;9.48;8.30;;;24.10;55.20;;;;;;5071171;28;20422;-55
2021/09/22 11:35:51;;;;;;;10.32;8.45;;;23.50;56.90;;;;;;5069804;28;20772;-55
2021/09/22 11:38:17;;;;;;;10.18;8.98;;;23.70;56.30;;;;;;5070535;28;20383;-56
2021/09/22 11:40:43;;;;;;;15.27;9.55;;;23.60;56.70;;;;;;5070795;28;20451;-56
2021/09/22 11:43:12;;;;;;;9.20;7.90;;;23.70;58.90;;;;;;5069749;28;20461;-56
2021/09/22 11:45:44;;;;;;;9.70;7.43;;;23.80;57.90;;;;;;5071586;28;20380;-56
2021/09/22 11:48:12;;;;;;;8.90;6.70;;;23.50;58.30;;;;;;5070070;28;20364;-56
2021/09/22 11:50:41;;;;;;;8.83;7.80;;;23.60;58.80;;;;;;5070012;28;20536;-56
2021/09/22 11:53:09;;;;;;;8.90;7.20;;;23.60;57.60;;;;;;5070199;28;20392;-56
2021/09/22 11:55:35;;;;;;;11.90;7.85;;;23.70;58.90;;;;;;5070920;28;20403;-57
2021/09/22 11:58:12;;;;;;;7.60;4.70;;;23.50;58.50;;;;;;5070041;28;20876;-56
2021/09/22 12:00:40;;;;;;;7.80;4.90;;;23.50;59.40;;;;;;5071262;28;20506;-56
2021/09/22 12:03:12;;;;;;;7.35;4.13;;;23.40;60.50;;;;;;5069679;28;20376;-56
2021/09/22 12:05:39;;;;;;;9.25;4.20;;;23.20;59.30;;;;;;5069025;28;20376;-56
2021/09/22 12:08:06;;;;;;;9.57;4.00;;;23.30;59.10;;;;;;5069721;28;20837;-56
2021/09/22 12:10:32;;;;;;;11.80;4.90;;;23.50;59.50;;;;;;5070741;28;20444;-56
2021/09/22 12:13:00;;;;;;;9.40;4.68;;;23.10;59.80;;;;;;5069910;28;20387;-56
2021/09/22 12:15:25;;;;;;;8.15;4.20;;;22.90;61.20;;;;;;5070674;28;20387;-55
2021/09/22 12:17:52;;;;;;;8.50;4.00;;;22.80;61.10;;;;;;5069779;28;20748;-55
2021/09/22 12:20:18;;;;;;;8.85;3.80;;;23.10;61.70;;;;;;5070279;28;20404;-55
2021/09/22 12:22:57;;;;;;;9.40;4.20;;;23.30;60.90;;;;;;5070701;28;20468;-55
2021/09/22 12:25:22;;;;;;;8.70;4.25;;;23.40;61.00;;;;;;5070121;28;20388;-52
2021/09/22 12:27:49;;;;;;;10.52;4.53;;;23.50;60.20;;;;;;5069944;28;20868;-52
2021/09/22 12:30:17;;;;;;;7.90;3.72;;;22.70;59.80;;;;;;5069350;28;20398;-53
2021/09/22 12:32:55;;;;;;;9.50;4.15;;;23.70;62.20;;;;;;5069805;28;20429;-54
2021/09/22 12:35:22;;;;;;;9.20;4.17;;;23.70;61.50;;;;;;5067529;28;20424;-54